EDDC/DRS METAR and TAF weather

Enter ICAO airport designator
Station Type Date Time Source
EDDC METAR 2019/05/19 06:50 UTC NOAA

EDDC 190650Z 12009KT 090V160 CAVOK 18/10 Q1006 NOSIG


Station Type Date Time Source
EDDC Decoded METAR 2019/05/19 06:50 UTC NOAA

Dresden-Klotzsche, Germany (EDDC) 51-08N 013-45E 232M
May 19, 2019 - 02:50 AM EDT / 2019.05.19 0650 UTC
Wind: from the ESE (120 degrees) at 10 MPH (9 KT) (direction variable):0
Visibility: greater than 7 mile(s):0
Temperature: 64 F (18 C)
Dew Point: 50 F (10 C)
Relative Humidity: 59%
Pressure (altimeter): 29.71 in. Hg (1006 hPa)
ob: EDDC 190650Z 12009KT 090V160 CAVOK 18/10 Q1006 NOSIG
cycle: 7

Station Type Date Time Source
EDDC TAF 2019/05/19 06:27 UTC NOAA

TAF EDDC 190500Z 1906/2006 10009KT CAVOK
BECMG 1918/1920 14004KT

Example: see airport list